Eller, North Carolina
Current Conditions -  °F | °C
As of 4:54 AM on Saturday 22 Nov 2014 (Local Time) from KINT Reporting Station
Clear Clear  
Wind Chill: 25°   Ceiling: Unl
Heat Index: 25°   Visibility: 10mi
Dew Point: 13°   Wind: 0mph
Humidity: 60%   Direction: NA
Pressure: 30.53"   Gusts: NA
Location:  36.0182°N, 80.183°W
Report Text: KINT 220954Z AUTO 00000KT 10SM CLR M04/M11 A3053 RMK AO2 SLP344 T10391106
Loading
Personal Weather Stations






























Interactive Weather Map New forecast layout! Learn more

10-Day Weather Forecast

Advertisements
Track Severe Weather on mobile